createdAt,value
2023-04-06T00:00:15.570Z,54.13
2023-04-06T00:02:44.281Z,54.32
2023-04-06T00:05:13.006Z,54.46
2023-04-06T00:07:43.033Z,54.17
2023-04-06T00:10:12.294Z,54.14
2023-04-06T00:12:40.954Z,54.14
2023-04-06T00:15:10.747Z,54.45
2023-04-06T00:17:39.462Z,54.41
2023-04-06T00:20:09.405Z,54.51
2023-04-06T00:22:38.109Z,54.38
2023-04-06T00:25:08.985Z,54.49
2023-04-06T00:27:37.671Z,54.54
2023-04-06T00:30:07.419Z,54.68
2023-04-06T00:32:36.534Z,54.58
2023-04-06T00:35:05.808Z,54.96
2023-04-06T00:37:35.053Z,54.81
2023-04-06T00:40:04.275Z,54.98
2023-04-06T00:42:34.126Z,54.93
2023-04-06T00:45:03.963Z,55.22
2023-04-06T00:47:32.698Z,55.26
2023-04-06T00:50:01.418Z,55.53
2023-04-06T00:52:31.128Z,55.41
2023-04-06T00:54:59.891Z,55.61
2023-04-06T00:57:28.641Z,55.86
2023-04-06T00:59:59.680Z,55.71
2023-04-06T01:02:28.486Z,55.80
2023-04-06T01:04:57.700Z,55.81
2023-04-06T01:07:36.241Z,55.88
2023-04-06T01:10:26.591Z,55.96
2023-04-06T01:13:01.226Z,56.23
2023-04-06T01:15:52.209Z,56.29
2023-04-06T01:18:31.557Z,56.33
2023-04-06T01:21:16.562Z,56.58
2023-04-06T01:24:00.946Z,56.61
2023-04-06T01:26:37.590Z,57.02
2023-04-06T01:29:09.294Z,56.95
2023-04-06T01:31:38.240Z,57.23
2023-04-06T01:34:07.230Z,57.46
2023-04-06T01:36:36.234Z,57.66
2023-04-06T01:39:22.129Z,57.99
2023-04-06T01:41:51.049Z,58.14
2023-04-06T01:44:21.790Z,58.44
2023-04-06T01:46:57.587Z,58.77
2023-04-06T01:49:26.782Z,58.83
2023-04-06T01:51:58.101Z,58.91
2023-04-06T01:54:28.873Z,59.28
2023-04-06T01:57:08.885Z,59.37
2023-04-06T01:59:44.168Z,59.77
2023-04-06T02:02:33.307Z,59.96
2023-04-06T02:05:07.699Z,60.18
2023-04-06T02:07:36.802Z,60.20
2023-04-06T02:10:13.092Z,60.35
2023-04-06T02:12:41.998Z,60.39
2023-04-06T02:15:15.455Z,60.66
2023-04-06T02:17:44.823Z,60.89
2023-04-06T02:20:13.586Z,60.96
2023-04-06T02:22:42.438Z,61.26
2023-04-06T02:25:12.850Z,61.40
2023-04-06T02:27:41.598Z,61.63
2023-04-06T02:30:11.161Z,61.81
2023-04-06T02:32:39.963Z,62.10
2023-04-06T02:35:09.712Z,62.27
2023-04-06T02:37:38.491Z,62.36
2023-04-06T02:40:08.193Z,62.48
2023-04-06T02:42:38.325Z,62.58
2023-04-06T02:45:08.770Z,62.51
2023-04-06T02:47:43.791Z,62.67
2023-04-06T02:50:14.687Z,62.56
2023-04-06T02:52:52.125Z,62.58
2023-04-06T02:55:22.377Z,62.60
2023-04-06T02:57:52.922Z,62.59
2023-04-06T03:00:25.867Z,62.77
2023-04-06T03:02:54.424Z,62.98
2023-04-06T03:05:23.386Z,62.96
2023-04-06T03:07:52.166Z,62.94
2023-04-06T03:10:32.725Z,63.04
2023-04-06T03:13:02.772Z,62.95
2023-04-06T03:16:00.548Z,63.01
2023-04-06T03:18:29.862Z,63.27
2023-04-06T03:21:01.356Z,63.14
2023-04-06T03:24:06.353Z,63.23
2023-04-06T03:26:35.273Z,63.25
2023-04-06T03:29:09.035Z,63.04
2023-04-06T03:31:38.321Z,63.28
2023-04-06T03:34:10.036Z,63.29
2023-04-06T03:36:39.046Z,63.43
2023-04-06T03:39:07.666Z,63.48
2023-04-06T03:41:40.693Z,63.66
2023-04-06T03:44:26.496Z,63.43
2023-04-06T03:46:55.513Z,63.75
2023-04-06T03:49:24.410Z,63.95
2023-04-06T03:51:55.957Z,63.99
2023-04-06T03:54:25.295Z,63.95
2023-04-06T03:56:53.943Z,64.00
2023-04-06T03:59:22.774Z,64.32
2023-04-06T04:01:56.466Z,64.58
2023-04-06T04:04:26.035Z,64.35
2023-04-06T04:06:54.683Z,64.54
2023-04-06T04:09:23.072Z,64.65
2023-04-06T04:11:52.897Z,65.02
2023-04-06T04:14:22.509Z,64.65
2023-04-06T04:16:51.492Z,64.79
2023-04-06T04:19:22.224Z,64.99
2023-04-06T04:21:51.062Z,64.76
2023-04-06T04:24:26.408Z,65.01
2023-04-06T04:26:56.452Z,65.07
2023-04-06T04:29:25.837Z,65.10
2023-04-06T04:31:55.503Z,65.03
2023-04-06T04:34:26.206Z,64.75
2023-04-06T04:36:55.406Z,64.76
2023-04-06T04:39:34.961Z,64.96
2023-04-06T04:42:08.967Z,65.03
2023-04-06T04:44:42.134Z,65.10
2023-04-06T04:47:11.485Z,64.91
2023-04-06T04:49:47.057Z,65.16
2023-04-06T04:52:20.784Z,65.26
2023-04-06T04:55:10.307Z,65.42
2023-04-06T04:57:39.194Z,65.44
2023-04-06T05:00:09.824Z,65.42
2023-04-06T05:02:40.726Z,65.47
2023-04-06T05:05:24.445Z,65.32
2023-04-06T05:07:53.496Z,65.71
2023-04-06T05:10:39.692Z,65.46
2023-04-06T05:13:08.986Z,65.56
2023-04-06T05:15:39.357Z,65.88
2023-04-06T05:18:16.653Z,65.86
2023-04-06T05:20:46.997Z,66.04
2023-04-06T05:23:15.987Z,66.14
2023-04-06T05:25:45.823Z,65.85
2023-04-06T05:28:21.884Z,65.86
2023-04-06T05:30:50.845Z,66.12
2023-04-06T05:33:19.732Z,65.96
2023-04-06T05:36:08.125Z,66.29
2023-04-06T05:38:40.446Z,65.99
2023-04-06T05:41:27.978Z,66.32
2023-04-06T05:43:57.607Z,66.20
2023-04-06T05:46:27.112Z,66.33
2023-04-06T05:48:58.497Z,66.29
2023-04-06T05:51:32.289Z,66.51
2023-04-06T05:54:01.431Z,66.63
2023-04-06T05:56:31.264Z,66.70
2023-04-06T05:59:00.642Z,66.71
2023-04-06T06:01:31.868Z,66.82
2023-04-06T06:04:03.068Z,66.92
2023-04-06T06:06:36.042Z,67.01
2023-04-06T06:09:16.201Z,67.18
2023-04-06T06:11:53.660Z,67.06
2023-04-06T06:14:29.335Z,67.18
2023-04-06T06:16:58.287Z,67.33
2023-04-06T06:19:27.226Z,67.32
2023-04-06T06:22:03.395Z,67.59
2023-04-06T06:24:33.315Z,67.47
2023-04-06T06:27:03.201Z,67.83
2023-04-06T06:29:34.729Z,68.02
2023-04-06T06:32:03.849Z,68.16
2023-04-06T06:34:32.644Z,68.07
2023-04-06T06:37:06.156Z,68.21
2023-04-06T06:39:36.128Z,68.12
2023-04-06T06:42:04.955Z,68.38
2023-04-06T06:44:57.210Z,67.99
2023-04-06T06:47:27.196Z,68.16
2023-04-06T06:49:56.356Z,68.15
2023-04-06T06:52:27.138Z,68.46
2023-04-06T06:54:57.670Z,68.63
2023-04-06T06:57:28.237Z,68.99
2023-04-06T06:59:57.301Z,68.90
2023-04-06T07:02:26.148Z,68.39
2023-04-06T07:04:55.087Z,68.45
2023-04-06T07:07:23.978Z,68.30
2023-04-06T07:09:53.951Z,67.85
2023-04-06T07:12:22.573Z,67.81
2023-04-06T07:14:51.282Z,67.72
2023-04-06T07:17:20.008Z,67.51
2023-04-06T07:19:48.901Z,67.31
2023-04-06T07:22:17.668Z,67.52
2023-04-06T07:24:46.500Z,67.51
2023-04-06T07:27:18.273Z,66.80
2023-04-06T07:29:48.011Z,66.31
2023-04-06T07:32:16.842Z,65.87
2023-04-06T07:34:46.286Z,65.00
2023-04-06T07:37:16.074Z,64.65
2023-04-06T07:39:46.604Z,64.21
2023-04-06T07:42:17.748Z,63.66
2023-04-06T07:44:48.567Z,63.30
2023-04-06T07:47:18.299Z,62.80
2023-04-06T07:49:48.496Z,62.44
2023-04-06T07:52:18.425Z,61.81
2023-04-06T07:54:50.587Z,61.28
2023-04-06T07:57:21.012Z,60.99
2023-04-06T07:59:49.749Z,60.56
2023-04-06T08:02:18.763Z,59.79
2023-04-06T08:04:47.672Z,59.04
2023-04-06T08:07:16.488Z,58.25
2023-04-06T08:09:45.629Z,56.97
2023-04-06T08:12:14.941Z,55.96
2023-04-06T08:14:44.892Z,55.45
2023-04-06T08:17:13.684Z,54.83
2023-04-06T08:19:44.678Z,54.40
2023-04-06T08:22:13.534Z,53.91
2023-04-06T08:24:42.545Z,53.26
2023-04-06T08:27:11.106Z,52.90
2023-04-06T08:29:40.100Z,52.08
2023-04-06T08:32:10.223Z,51.54
2023-04-06T08:34:39.008Z,50.70
2023-04-06T08:37:08.496Z,50.32
2023-04-06T08:39:37.229Z,49.60
2023-04-06T08:42:06.598Z,49.40
2023-04-06T08:44:35.355Z,48.48
2023-04-06T08:47:06.639Z,48.31
2023-04-06T08:49:39.364Z,48.94
2023-04-06T08:52:10.227Z,48.74
2023-04-06T08:54:40.006Z,48.17
2023-04-06T08:57:09.520Z,47.03
2023-04-06T08:59:38.711Z,47.04
2023-04-06T09:02:08.308Z,46.38
2023-04-06T09:04:39.162Z,45.66
2023-04-06T09:07:08.153Z,45.81
2023-04-06T09:09:36.645Z,45.90
2023-04-06T09:12:07.065Z,45.62
2023-04-06T09:14:39.511Z,45.49
2023-04-06T09:17:08.651Z,44.97
2023-04-06T09:19:48.024Z,44.06
2023-04-06T09:22:17.093Z,44.07
2023-04-06T09:24:47.819Z,42.88
2023-04-06T09:27:17.084Z,42.70
2023-04-06T09:29:46.480Z,42.11
2023-04-06T09:32:18.183Z,42.19
2023-04-06T09:34:50.980Z,41.60
2023-04-06T09:37:21.502Z,41.38
2023-04-06T09:39:52.516Z,41.04
2023-04-06T09:42:27.601Z,40.66
2023-04-06T09:44:56.721Z,40.07
2023-04-06T09:47:29.466Z,39.95
2023-04-06T09:50:04.776Z,40.01
2023-04-06T09:52:34.388Z,39.17
2023-04-06T09:55:09.289Z,39.14
2023-04-06T09:57:49.477Z,39.26
2023-04-06T10:00:24.387Z,39.07
2023-04-06T10:02:58.822Z,39.01
2023-04-06T10:05:39.516Z,39.09
2023-04-06T10:08:11.322Z,38.27
2023-04-06T10:10:40.232Z,38.49
2023-04-06T10:13:09.404Z,37.90
2023-04-06T10:15:39.980Z,37.94
2023-04-06T10:18:09.572Z,37.74
2023-04-06T10:20:49.574Z,37.35
2023-04-06T10:23:26.108Z,37.21
2023-04-06T10:25:56.137Z,37.35
2023-04-06T10:28:25.792Z,37.32
2023-04-06T10:31:00.736Z,36.98
2023-04-06T10:33:31.231Z,35.80
2023-04-06T10:36:11.762Z,36.05
2023-04-06T10:38:42.043Z,35.86
2023-04-06T10:41:12.499Z,35.69
2023-04-06T10:43:42.816Z,35.61
2023-04-06T10:46:12.675Z,35.00
2023-04-06T10:48:42.825Z,35.06
2023-04-06T10:51:14.472Z,34.70
2023-04-06T10:53:45.452Z,34.06
2023-04-06T10:56:16.233Z,33.64
2023-04-06T10:58:48.554Z,33.89
2023-04-06T11:01:18.829Z,33.45
2023-04-06T11:03:48.214Z,33.32
2023-04-06T11:06:26.393Z,33.17
2023-04-06T11:08:56.316Z,32.89
2023-04-06T11:11:27.340Z,32.61
2023-04-06T11:13:58.797Z,32.63
2023-04-06T11:16:29.282Z,32.34
2023-04-06T11:19:00.634Z,32.38
2023-04-06T11:21:40.298Z,32.70
2023-04-06T11:24:11.723Z,32.26
2023-04-06T11:26:42.612Z,31.90
2023-04-06T11:29:11.598Z,31.33
2023-04-06T11:31:44.767Z,31.80
2023-04-06T11:34:15.484Z,31.82
2023-04-06T11:36:47.054Z,31.59
2023-04-06T11:41:50.920Z,31.54
2023-04-06T11:44:33.640Z,31.05
2023-04-06T11:47:03.793Z,31.04
2023-04-06T11:49:33.308Z,30.62
2023-04-06T11:52:03.726Z,30.88
2023-04-06T11:54:34.193Z,30.77
2023-04-06T11:57:03.529Z,31.24
2023-04-06T11:59:32.460Z,30.63
2023-04-06T12:02:01.308Z,30.88
2023-04-06T12:04:29.864Z,31.43
2023-04-06T12:06:59.193Z,31.36
2023-04-06T12:09:29.107Z,31.52
2023-04-06T12:11:58.286Z,31.15
2023-04-06T12:14:26.889Z,31.12
2023-04-06T12:16:55.882Z,30.67
2023-04-06T12:19:26.606Z,30.82
2023-04-06T12:21:55.829Z,30.23
2023-04-06T12:24:24.597Z,30.11
2023-04-06T12:27:08.638Z,29.88
2023-04-06T12:29:37.839Z,30.08
2023-04-06T12:32:07.063Z,29.62
2023-04-06T12:34:37.132Z,29.20
2023-04-06T12:37:06.046Z,29.31
2023-04-06T12:39:34.864Z,28.98
2023-04-06T12:42:05.591Z,28.93
2023-04-06T12:44:34.460Z,28.81
2023-04-06T12:47:03.480Z,28.95
2023-04-06T12:49:32.651Z,28.87
2023-04-06T12:52:01.529Z,29.22
2023-04-06T12:54:30.407Z,29.18
2023-04-06T12:56:59.128Z,29.49
2023-04-06T12:59:35.562Z,29.63
2023-04-06T13:02:05.750Z,29.49
2023-04-06T13:04:44.153Z,29.30
2023-04-06T13:07:12.892Z,29.33
2023-04-06T13:09:41.595Z,29.46
2023-04-06T13:12:10.426Z,29.39
2023-04-06T13:14:40.554Z,29.30
2023-04-06T13:17:09.492Z,29.26
2023-04-06T13:19:38.198Z,29.59
2023-04-06T13:22:07.993Z,29.48
2023-04-06T13:24:36.769Z,29.34
2023-04-06T13:27:05.603Z,29.11
2023-04-06T13:29:35.255Z,29.49
2023-04-06T13:32:05.281Z,29.45
2023-04-06T13:34:33.801Z,28.89
2023-04-06T13:37:02.559Z,28.92
2023-04-06T13:39:31.530Z,29.18
2023-04-06T13:42:00.686Z,29.28
2023-04-06T13:44:31.103Z,29.40
2023-04-06T13:47:00.495Z,29.41
2023-04-06T13:49:31.235Z,29.40
2023-04-06T13:52:00.138Z,28.97
2023-04-06T13:54:29.799Z,29.37
2023-04-06T13:56:58.890Z,29.24
2023-04-06T13:59:33.539Z,29.37
2023-04-06T14:02:02.311Z,29.58
2023-04-06T14:04:32.288Z,29.66
2023-04-06T14:07:01.325Z,29.86
2023-04-06T14:09:30.262Z,29.75
2023-04-06T14:11:59.217Z,29.64
2023-04-06T14:14:27.875Z,29.63
2023-04-06T14:16:56.602Z,30.17
2023-04-06T14:19:25.272Z,29.90
2023-04-06T14:21:55.391Z,30.13
2023-04-06T14:24:24.088Z,29.91
2023-04-06T14:26:52.685Z,29.93
2023-04-06T14:29:21.274Z,30.16
2023-04-06T14:31:50.089Z,30.06
2023-04-06T14:34:18.796Z,30.30
2023-04-06T14:36:47.419Z,30.50
2023-04-06T14:39:17.495Z,30.67
2023-04-06T14:41:46.368Z,30.42
2023-04-06T14:44:15.440Z,30.44
2023-04-06T14:46:44.303Z,30.64
2023-04-06T14:49:14.240Z,30.69
2023-04-06T14:51:42.937Z,30.85
2023-04-06T14:54:11.596Z,30.80
2023-04-06T14:56:41.289Z,30.93
2023-04-06T14:59:09.862Z,30.90
2023-04-06T15:01:39.184Z,31.10
2023-04-06T15:04:08.159Z,31.07
2023-04-06T15:06:36.523Z,31.24
2023-04-06T15:09:05.460Z,31.36
2023-04-06T15:11:34.132Z,31.35
2023-04-06T15:14:04.251Z,31.67
2023-04-06T15:16:33.734Z,31.63
2023-04-06T15:19:02.797Z,31.78
2023-04-06T15:21:32.057Z,31.70
2023-04-06T15:24:00.736Z,31.61
2023-04-06T15:26:29.327Z,31.65
2023-04-06T15:28:57.882Z,31.84
2023-04-06T15:31:37.791Z,31.86
2023-04-06T15:34:08.865Z,32.04
2023-04-06T15:36:37.990Z,32.11
2023-04-06T15:39:09.462Z,32.18
2023-04-06T15:41:37.947Z,32.39
2023-04-06T15:44:06.790Z,32.50
2023-04-06T15:46:36.932Z,32.58
2023-04-06T15:49:06.028Z,32.87
2023-04-06T15:51:34.673Z,32.84
2023-04-06T15:54:03.412Z,32.96
2023-04-06T15:56:33.407Z,33.12
2023-04-06T15:59:03.870Z,33.20
2023-04-06T16:01:32.484Z,33.27
2023-04-06T16:04:02.584Z,33.23
2023-04-06T16:06:32.540Z,33.38
2023-04-06T16:09:00.901Z,33.65
2023-04-06T16:11:29.608Z,33.93
2023-04-06T16:13:58.405Z,33.98
2023-04-06T16:16:27.412Z,34.05
2023-04-06T16:18:56.246Z,34.30
2023-04-06T16:21:27.898Z,34.43
2023-04-06T16:23:58.532Z,34.65
2023-04-06T16:26:28.657Z,34.76
2023-04-06T16:28:57.398Z,34.96
2023-04-06T16:31:26.495Z,35.13
2023-04-06T16:33:57.317Z,35.18
2023-04-06T16:36:28.686Z,35.14
2023-04-06T16:38:57.949Z,35.14
2023-04-06T16:41:27.487Z,35.23
2023-04-06T16:43:57.361Z,35.60
2023-04-06T16:46:31.970Z,35.79
2023-04-06T16:49:01.557Z,35.86
2023-04-06T16:51:33.119Z,36.16
2023-04-06T16:54:02.579Z,36.17
2023-04-06T16:56:32.790Z,36.36
2023-04-06T16:59:01.769Z,36.63
2023-04-06T17:01:30.814Z,36.80
2023-04-06T17:03:59.847Z,37.15
2023-04-06T17:06:29.194Z,37.40
2023-04-06T17:08:59.736Z,37.66
2023-04-06T17:11:35.923Z,37.83
2023-04-06T17:14:12.182Z,37.97
2023-04-06T17:16:40.818Z,38.16
2023-04-06T17:19:09.607Z,38.66
2023-04-06T17:21:38.384Z,38.95
2023-04-06T17:24:09.248Z,39.15
2023-04-06T17:26:37.677Z,39.30
2023-04-06T17:29:06.315Z,39.61
2023-04-06T17:31:34.965Z,39.74
2023-04-06T17:34:03.809Z,40.07
2023-04-06T17:36:32.861Z,40.15
2023-04-06T17:39:01.849Z,40.68
2023-04-06T17:41:32.779Z,40.69
2023-04-06T17:44:01.525Z,40.69
2023-04-06T17:46:30.121Z,40.86
2023-04-06T17:48:58.558Z,40.90
2023-04-06T17:51:27.235Z,40.91
2023-04-06T17:53:56.008Z,41.13
2023-04-06T17:56:24.673Z,41.24
2023-04-06T17:58:57.514Z,41.41
2023-04-06T18:01:26.362Z,41.63
2023-04-06T18:03:55.065Z,41.93
2023-04-06T18:06:26.182Z,42.27
2023-04-06T18:08:55.237Z,42.88
2023-04-06T18:11:25.689Z,43.00
2023-04-06T18:13:55.594Z,43.18
2023-04-06T18:16:28.411Z,43.50
2023-04-06T18:18:57.795Z,43.96
2023-04-06T18:21:27.369Z,44.47
2023-04-06T18:23:55.983Z,44.76
2023-04-06T18:26:25.919Z,45.14
2023-04-06T18:28:55.907Z,45.52
2023-04-06T18:31:24.516Z,45.81
2023-04-06T18:33:54.428Z,46.39
2023-04-06T18:36:23.522Z,46.92
2023-04-06T18:38:54.515Z,47.85
2023-04-06T18:41:23.193Z,48.89
2023-04-06T18:43:51.950Z,49.60
2023-04-06T18:46:22.487Z,50.39
2023-04-06T18:48:51.250Z,51.49
2023-04-06T18:51:20.728Z,52.58
2023-04-06T18:53:49.513Z,53.69
2023-04-06T18:56:19.972Z,54.42
2023-04-06T18:58:49.187Z,55.25
2023-04-06T19:01:28.473Z,55.87
2023-04-06T19:03:59.233Z,56.94
2023-04-06T19:06:28.697Z,57.87
2023-04-06T19:08:58.864Z,58.96
2023-04-06T19:11:28.029Z,60.35
2023-04-06T19:13:57.566Z,62.04
2023-04-06T19:16:27.660Z,63.42
2023-04-06T19:18:56.387Z,65.35
2023-04-06T19:21:27.476Z,67.15
2023-04-06T19:23:56.690Z,68.02
2023-04-06T19:26:27.867Z,69.32
2023-04-06T19:28:56.840Z,70.29
2023-04-06T19:31:28.024Z,71.46
2023-04-06T19:33:57.240Z,72.74
2023-04-06T19:36:26.041Z,73.76
2023-04-06T19:38:54.760Z,75.19
2023-04-06T19:41:26.473Z,76.10
2023-04-06T19:43:55.216Z,77.11
2023-04-06T19:46:23.831Z,77.94
2023-04-06T19:48:53.602Z,78.93
2023-04-06T19:51:22.317Z,79.47
2023-04-06T19:53:50.967Z,80.46
2023-04-06T19:56:19.610Z,81.53
2023-04-06T19:58:47.949Z,82.46
2023-04-06T20:01:16.403Z,83.15
2023-04-06T20:03:45.228Z,84.01
2023-04-06T20:06:16.751Z,84.93
2023-04-06T20:08:45.384Z,85.00
2023-04-06T20:11:14.133Z,85.74
2023-04-06T20:13:42.772Z,86.34
2023-04-06T20:16:11.403Z,86.64
2023-04-06T20:18:40.089Z,87.28
2023-04-06T20:21:08.698Z,87.97
2023-04-06T20:23:38.385Z,88.56
2023-04-06T20:26:10.899Z,88.76
2023-04-06T20:28:39.730Z,89.47
2023-04-06T20:31:08.621Z,89.73
2023-04-06T20:33:37.418Z,90.67
2023-04-06T20:36:06.281Z,90.81
2023-04-06T20:38:34.740Z,91.14
2023-04-06T20:41:04.836Z,91.61
2023-04-06T20:43:34.484Z,92.24
2023-04-06T20:46:03.327Z,92.81
2023-04-06T20:48:35.951Z,93.08
2023-04-06T20:51:06.552Z,94.07
2023-04-06T20:53:35.393Z,94.37
2023-04-06T20:56:05.642Z,94.77
2023-04-06T20:58:34.216Z,95.12
2023-04-06T21:01:02.542Z,95.75
2023-04-06T21:03:31.263Z,95.84
2023-04-06T21:06:02.057Z,96.04
2023-04-06T21:08:30.805Z,96.35
2023-04-06T21:10:59.426Z,96.58
2023-04-06T21:13:29.676Z,97.00
2023-04-06T21:15:58.410Z,97.32
2023-04-06T21:18:27.266Z,97.52
2023-04-06T21:20:55.953Z,97.95
2023-04-06T21:23:24.602Z,98.23
2023-04-06T21:25:56.828Z,98.57
2023-04-06T21:28:26.346Z,98.93
2023-04-06T21:30:56.963Z,100.00
2023-04-06T21:33:25.660Z,100.00
2023-04-06T21:35:54.588Z,100.00
2023-04-06T21:38:23.177Z,100.00
2023-04-06T21:40:56.700Z,100.00
2023-04-06T21:43:25.329Z,100.00
2023-04-06T21:45:55.160Z,100.00
2023-04-06T21:48:23.854Z,100.00
2023-04-06T21:50:52.205Z,100.00
2023-04-06T21:53:20.973Z,100.00
2023-04-06T21:55:50.032Z,100.00
2023-04-06T21:58:18.381Z,100.00
2023-04-06T22:00:46.711Z,100.00
2023-04-06T22:03:16.940Z,100.00
2023-04-06T22:05:45.700Z,100.00
2023-04-06T22:08:25.526Z,100.00
2023-04-06T22:11:02.520Z,100.00
2023-04-06T22:13:31.235Z,100.00
2023-04-06T22:15:59.560Z,100.00
2023-04-06T22:18:29.591Z,100.00
2023-04-06T22:20:58.317Z,100.00
2023-04-06T22:23:26.897Z,100.00
2023-04-06T22:25:57.957Z,100.00
2023-04-06T22:28:27.069Z,100.00
2023-04-06T22:30:55.465Z,100.00
2023-04-06T22:33:24.100Z,100.00
2023-04-06T22:35:53.810Z,100.00
2023-04-06T22:38:22.468Z,100.00
2023-04-06T22:40:51.100Z,100.00
2023-04-06T22:43:19.819Z,100.00
2023-04-06T22:45:48.408Z,100.00
2023-04-06T22:48:17.230Z,100.00
2023-04-06T22:50:45.817Z,100.00
2023-04-06T22:53:15.531Z,100.00
2023-04-06T22:55:44.437Z,100.00
2023-04-06T22:58:13.079Z,100.00
2023-04-06T23:00:41.740Z,100.00
2023-04-06T23:03:10.716Z,100.00
2023-04-06T23:05:39.510Z,100.00
2023-04-06T23:08:07.849Z,100.00
2023-04-06T23:10:41.783Z,100.00
2023-04-06T23:13:10.446Z,100.00
2023-04-06T23:15:39.068Z,100.00
2023-04-06T23:18:07.911Z,100.00
2023-04-06T23:20:36.695Z,100.00
2023-04-06T23:23:05.507Z,100.00
2023-04-06T23:25:34.219Z,100.00
2023-04-06T23:28:04.041Z,100.00
2023-04-06T23:30:32.761Z,100.00
2023-04-06T23:33:01.467Z,100.00
2023-04-06T23:35:30.094Z,100.00
2023-04-06T23:37:59.361Z,100.00
2023-04-06T23:40:27.992Z,100.00
2023-04-06T23:42:56.347Z,100.00
2023-04-06T23:45:26.686Z,100.00
2023-04-06T23:47:55.338Z,100.00
2023-04-06T23:50:24.167Z,100.00
2023-04-06T23:52:52.735Z,100.00
2023-04-06T23:55:21.394Z,100.00
2023-04-06T23:57:49.992Z,100.00
